Burton, Illinois
Current Conditions -  °F | °C
As of 4:05 AM on Friday 24 Oct 2014 (Local Time) from KUIN Reporting Station
Moderate Fog Moderate Fog  
Wind Chill: 55°   Ceiling: 200
Heat Index: 55°   Visibility: 0.25mi
Dew Point: 54°   Wind: 6mph
Humidity: 96%   Direction: 290°WNW
Pressure: 30.07"   Gusts: NA
Location:  39.9317°N, 91.2953°W
Report Text: KUIN 240905Z AUTO 29005KT 1/4SM FG VV002 13/12 A3007 RMK AO2 T01280122
Loading
Personal Weather Stations






























Interactive Weather Map New forecast layout! Learn more

10-Day Weather Forecast

Advertisements
Track Severe Weather on mobile